Time;durP1;ratioP1;P1;durP2;ratioP2;P2;SDS_P1;SDS_P2;PMS_P1;PMS_P2;Temp;Humidity;BMP_temperature;BMP_pressure;BME280_temperature;BME280_humidity;BME280_pressure;Samples;Min_cycle;Max_cycle;Signal;HPM_P1;HPM_P2
2022/06/18 00:00:22;;;;;;;1.23;1.00;;;29.00;43.50;;;;;;5070789;28;20032;-62
2022/06/18 00:02:49;;;;;;;1.20;1.00;;;29.00;43.50;;;;;;5070464;28;20035;-64
2022/06/18 00:05:17;;;;;;;1.10;1.00;;;29.00;43.50;;;;;;5072807;28;20040;-64
2022/06/18 00:07:48;;;;;;;1.23;0.95;;;29.00;43.50;;;;;;5069037;28;20059;-64
2022/06/18 00:10:19;;;;;;;1.83;1.00;;;29.00;43.50;;;;;;5070894;28;20032;-62
2022/06/18 00:15:32;;;;;;;1.10;0.90;;;29.00;43.50;;;;;;5069928;28;20093;-66
2022/06/18 00:17:58;;;;;;;1.00;0.90;;;29.00;43.60;;;;;;5071602;28;20028;-65
2022/06/18 00:20:27;;;;;;;2.33;1.00;;;28.90;43.50;;;;;;5068015;28;20044;-61
2022/06/18 00:22:59;;;;;;;1.15;1.00;;;28.90;43.50;;;;;;5070097;28;20028;-66
2022/06/18 00:25:41;;;;;;;1.10;0.93;;;28.90;43.50;;;;;;5071808;28;20110;-64
2022/06/18 00:28:12;;;;;;;1.23;0.90;;;28.90;43.50;;;;;;5068473;28;20020;-66
2022/06/18 00:30:39;;;;;;;1.38;0.90;;;28.90;43.50;;;;;;5071240;28;20040;-64
2022/06/18 00:33:05;;;;;;;1.00;0.80;;;28.90;43.60;;;;;;5070049;28;20036;-61
2022/06/18 00:35:32;;;;;;;1.30;0.90;;;28.80;43.50;;;;;;5070934;28;20119;-65
2022/06/18 00:38:00;;;;;;;2.13;1.10;;;28.80;43.50;;;;;;5069231;28;20035;-62
2022/06/18 00:40:31;;;;;;;1.48;1.00;;;28.80;43.50;;;;;;5069251;28;20039;-64
2022/06/18 00:43:01;;;;;;;1.00;0.88;;;28.80;43.60;;;;;;5071891;28;21594;-66
2022/06/18 00:45:30;;;;;;;1.10;0.80;;;28.70;43.50;;;;;;5072378;28;20043;-62
2022/06/18 00:48:27;;;;;;;0.90;0.77;;;28.80;43.60;;;;;;5067844;28;20052;-63
2022/06/18 00:51:21;;;;;;;1.30;1.00;;;28.70;43.60;;;;;;5071035;28;20048;-63
2022/06/18 00:53:52;;;;;;;0.85;0.80;;;28.70;43.60;;;;;;5066783;28;20798;-64
2022/06/18 00:56:21;;;;;;;1.45;1.00;;;28.70;43.60;;;;;;5071765;28;20390;-62
2022/06/18 00:59:12;;;;;;;1.08;0.90;;;28.70;43.70;;;;;;5066555;28;20039;-66
2022/06/18 01:01:44;;;;;;;1.25;0.85;;;28.70;43.70;;;;;;5068178;28;20054;-66
2022/06/18 01:04:21;;;;;;;1.45;0.90;;;28.70;43.70;;;;;;5067068;28;20490;-66
2022/06/18 01:06:46;;;;;;;1.00;0.80;;;28.60;43.70;;;;;;5069002;28;20086;-64
2022/06/18 01:09:15;;;;;;;1.00;0.80;;;28.60;43.70;;;;;;5067317;28;20032;-63
2022/06/18 01:11:43;;;;;;;0.80;0.73;;;28.60;43.70;;;;;;5068144;28;20575;-63
2022/06/18 01:14:12;;;;;;;0.80;0.80;;;28.60;43.70;;;;;;5064149;28;22467;-61
2022/06/18 01:16:38;;;;;;;0.70;0.70;;;28.60;43.80;;;;;;5065802;28;20130;-66
2022/06/18 01:19:07;;;;;;;1.25;0.90;;;28.50;43.70;;;;;;5065437;28;20041;-66
2022/06/18 01:21:42;;;;;;;0.80;0.70;;;28.60;43.80;;;;;;5071120;28;20039;-64
2022/06/18 01:24:12;;;;;;;0.88;0.80;;;28.50;43.70;;;;;;5069677;28;21405;-63
2022/06/18 01:26:38;;;;;;;0.90;0.80;;;28.50;43.80;;;;;;5068803;28;20276;-66
2022/06/18 01:29:03;;;;;;;1.13;1.00;;;28.50;43.80;;;;;;5067527;28;20042;-61
2022/06/18 01:31:30;;;;;;;1.27;0.90;;;28.50;43.80;;;;;;5067120;28;20055;-64
2022/06/18 01:33:57;;;;;;;1.33;0.90;;;28.40;43.80;;;;;;5070139;28;20036;-61
2022/06/18 01:36:23;;;;;;;0.88;0.75;;;28.40;43.80;;;;;;5072396;28;20090;-62
2022/06/18 01:38:49;;;;;;;1.15;0.88;;;28.40;43.80;;;;;;5065128;28;20153;-65
2022/06/18 01:44:16;;;;;;;0.70;0.70;;;28.40;43.90;;;;;;5064471;28;20511;-65
2022/06/18 01:46:45;;;;;;;0.70;0.70;;;28.40;43.90;;;;;;5069980;28;20027;-64
2022/06/18 01:49:13;;;;;;;1.23;0.80;;;28.40;44.00;;;;;;5068805;28;20472;-64
2022/06/18 01:51:42;;;;;;;1.10;0.82;;;28.30;43.90;;;;;;5063928;28;20034;-66
2022/06/18 01:54:13;;;;;;;0.70;0.70;;;28.30;43.90;;;;;;5067880;28;20120;-64
2022/06/18 01:56:43;;;;;;;1.17;0.88;;;28.30;44.00;;;;;;5067829;28;20033;-61
2022/06/18 01:59:34;;;;;;;0.80;0.70;;;28.30;44.00;;;;;;5070253;28;20072;-64
2022/06/18 02:02:00;;;;;;;1.13;1.02;;;28.20;43.90;;;;;;5066082;28;20459;-62
2022/06/18 02:04:27;;;;;;;1.88;0.80;;;28.20;44.00;;;;;;5066544;28;20349;-65
2022/06/18 02:06:53;;;;;;;0.70;0.70;;;28.20;44.00;;;;;;5068737;28;20114;-65
2022/06/18 02:09:25;;;;;;;0.70;0.70;;;28.20;44.00;;;;;;5064983;28;20024;-64
2022/06/18 02:11:52;;;;;;;1.42;0.70;;;28.20;44.10;;;;;;5070119;28;20148;-64
2022/06/18 02:14:20;;;;;;;1.10;0.80;;;28.20;44.10;;;;;;5068327;28;20075;-61
2022/06/18 02:16:47;;;;;;;1.15;0.80;;;28.20;44.10;;;;;;5067422;28;20080;-62
2022/06/18 02:19:15;;;;;;;0.70;0.70;;;28.20;44.10;;;;;;5068599;28;20495;-64
2022/06/18 02:21:45;;;;;;;0.88;0.77;;;28.10;44.10;;;;;;5070137;28;20024;-63
2022/06/18 02:24:11;;;;;;;0.88;0.70;;;28.10;44.10;;;;;;5067195;28;20548;-62
2022/06/18 02:26:40;;;;;;;0.73;0.70;;;28.10;44.20;;;;;;5065904;28;20020;-65
2022/06/18 02:29:17;;;;;;;0.68;0.68;;;28.10;44.20;;;;;;5066978;28;20139;-62
2022/06/18 02:31:45;;;;;;;1.55;0.70;;;28.00;44.20;;;;;;5066158;28;20044;-66
2022/06/18 02:34:16;;;;;;;1.23;0.80;;;28.00;44.30;;;;;;5066941;28;20021;-63
2022/06/18 02:36:42;;;;;;;0.80;0.70;;;28.00;44.30;;;;;;5064834;28;20029;-65
2022/06/18 02:39:07;;;;;;;1.10;0.80;;;27.90;44.30;;;;;;5066438;28;20169;-65
2022/06/18 02:41:34;;;;;;;0.70;0.70;;;27.90;44.30;;;;;;5067628;28;20036;-62
2022/06/18 02:44:01;;;;;;;0.82;0.70;;;27.90;44.20;;;;;;5070905;28;20093;-63
2022/06/18 02:46:27;;;;;;;0.75;0.73;;;27.90;44.30;;;;;;5070198;28;20017;-65
2022/06/18 02:48:53;;;;;;;0.77;0.70;;;27.90;44.20;;;;;;5073788;28;20123;-65
2022/06/18 02:51:19;;;;;;;1.05;0.80;;;27.90;44.30;;;;;;5070129;28;20108;-64
2022/06/18 02:53:44;;;;;;;1.02;0.90;;;27.90;44.40;;;;;;5069863;28;20154;-63
2022/06/18 02:56:14;;;;;;;1.50;1.08;;;27.80;44.30;;;;;;5069466;28;20131;-62
2022/06/18 02:58:45;;;;;;;0.70;0.70;;;27.80;44.40;;;;;;5071460;28;20076;-63
2022/06/18 03:01:17;;;;;;;0.80;0.80;;;27.80;44.40;;;;;;5069120;28;20134;-61
2022/06/18 03:03:49;;;;;;;0.95;0.80;;;27.80;44.40;;;;;;5070091;28;20028;-65
2022/06/18 03:06:17;;;;;;;0.73;0.70;;;27.80;44.50;;;;;;5072099;28;20114;-64
2022/06/18 03:08:46;;;;;;;0.70;0.70;;;27.80;44.40;;;;;;5071600;28;20157;-64
2022/06/18 03:13:57;;;;;;;0.98;0.70;;;27.80;44.50;;;;;;5071589;28;20039;-65
2022/06/18 03:16:23;;;;;;;1.25;0.80;;;27.70;44.40;;;;;;5067835;28;20460;-62
2022/06/18 03:18:52;;;;;;;1.42;0.70;;;27.70;44.40;;;;;;5075622;28;20390;-66
2022/06/18 03:21:32;;;;;;;1.02;0.80;;;27.70;44.50;;;;;;5071676;28;20016;-62
2022/06/18 03:23:58;;;;;;;0.80;0.80;;;27.70;44.50;;;;;;5067946;28;20092;-62
2022/06/18 03:26:24;;;;;;;0.70;0.60;;;27.70;44.50;;;;;;5074112;28;20094;-65
2022/06/18 03:28:50;;;;;;;0.75;0.75;;;27.60;44.50;;;;;;5069832;28;20093;-64
2022/06/18 03:31:15;;;;;;;1.15;0.77;;;27.70;44.50;;;;;;5071609;28;20093;-64
2022/06/18 03:33:41;;;;;;;1.23;0.80;;;27.60;45.00;;;;;;5070511;28;20020;-65
2022/06/18 03:36:11;;;;;;;0.65;0.63;;;27.60;44.60;;;;;;5070529;28;20054;-64
2022/06/18 03:38:37;;;;;;;0.80;0.80;;;27.60;44.60;;;;;;5070034;28;20104;-61
2022/06/18 03:41:02;;;;;;;1.17;0.90;;;27.60;44.60;;;;;;5071369;28;20112;-64
2022/06/18 03:43:28;;;;;;;1.13;0.80;;;27.60;44.60;;;;;;5069349;28;20363;-65
2022/06/18 03:46:00;;;;;;;0.68;0.68;;;27.60;44.60;;;;;;5071021;28;20085;-62
2022/06/18 03:48:39;;;;;;;1.65;1.10;;;27.60;44.00;;;;;;5071464;28;20048;-63
2022/06/18 03:51:05;;;;;;;1.27;0.90;;;27.50;42.00;;;;;;5069868;28;20028;-61
2022/06/18 03:53:31;;;;;;;1.75;0.90;;;27.40;40.60;;;;;;5066081;28;20048;-66
2022/06/18 03:55:56;;;;;;;1.83;0.95;;;27.30;39.50;;;;;;5072585;28;20032;-65
2022/06/18 03:58:22;;;;;;;2.00;1.00;;;27.20;39.40;;;;;;5072609;28;20039;-60
2022/06/18 04:00:49;;;;;;;1.75;0.90;;;27.20;39.70;;;;;;5068884;28;20645;-59
2022/06/18 04:03:15;;;;;;;1.63;1.05;;;27.10;39.30;;;;;;5071558;28;21255;-62
2022/06/18 04:05:41;;;;;;;2.85;1.10;;;27.00;38.80;;;;;;5069453;28;20020;-64
2022/06/18 04:08:08;;;;;;;1.60;1.00;;;26.90;39.20;;;;;;5066891;28;20051;-64
2022/06/18 04:10:34;;;;;;;2.28;1.00;;;26.90;39.30;;;;;;5072061;28;20037;-65
2022/06/18 04:12:59;;;;;;;2.05;1.02;;;26.80;39.20;;;;;;5070310;28;20040;-62
2022/06/18 04:15:25;;;;;;;2.53;1.17;;;26.70;38.80;;;;;;5065828;28;20052;-64
2022/06/18 04:17:50;;;;;;;3.13;1.10;;;26.60;39.10;;;;;;5073196;28;20047;-62
2022/06/18 04:20:23;;;;;;;1.83;0.90;;;26.60;39.40;;;;;;5071954;28;20024;-63
2022/06/18 04:22:48;;;;;;;1.58;1.10;;;26.60;39.20;;;;;;5069132;28;20452;-64
2022/06/18 04:25:14;;;;;;;1.90;1.27;;;26.40;39.50;;;;;;5067411;28;20277;-63
2022/06/18 04:27:40;;;;;;;3.25;1.00;;;26.30;39.20;;;;;;5070436;28;20112;-63
2022/06/18 04:30:06;;;;;;;1.77;0.98;;;26.20;39.70;;;;;;5069242;28;20090;-65
2022/06/18 04:32:32;;;;;;;1.90;1.20;;;26.20;40.00;;;;;;5066327;28;20036;-66
2022/06/18 04:34:57;;;;;;;4.00;1.52;;;26.20;40.30;;;;;;5070733;28;20369;-60
2022/06/18 04:37:23;;;;;;;2.67;1.35;;;26.20;40.20;;;;;;5071379;28;20039;-64
2022/06/18 04:39:48;;;;;;;3.38;1.45;;;26.20;40.00;;;;;;5069391;28;20028;-64
2022/06/18 04:42:15;;;;;;;2.25;1.30;;;26.20;40.20;;;;;;5070593;28;20055;-63
2022/06/18 04:44:40;;;;;;;2.88;1.30;;;26.10;40.20;;;;;;5068390;28;20032;-64
2022/06/18 04:47:06;;;;;;;1.98;1.05;;;26.10;40.40;;;;;;5065105;28;20028;-64
2022/06/18 04:49:31;;;;;;;1.90;1.00;;;26.10;40.50;;;;;;5072805;28;20031;-62
2022/06/18 04:51:57;;;;;;;2.22;1.00;;;26.10;40.70;;;;;;5070043;28;20107;-64
2022/06/18 04:54:23;;;;;;;1.77;0.98;;;26.00;40.90;;;;;;5068891;28;20525;-66
2022/06/18 04:56:48;;;;;;;3.42;1.30;;;26.00;40.90;;;;;;5070832;28;20036;-64
2022/06/18 04:59:15;;;;;;;3.08;1.08;;;25.90;40.90;;;;;;5068933;28;20047;-64
2022/06/18 05:01:40;;;;;;;2.35;1.30;;;25.90;40.90;;;;;;5068518;28;20038;-64
2022/06/18 05:04:07;;;;;;;2.47;1.23;;;25.90;40.90;;;;;;5067277;28;20375;-66
2022/06/18 05:06:33;;;;;;;2.20;1.20;;;25.90;40.90;;;;;;5067705;28;20031;-66
2022/06/18 05:08:59;;;;;;;2.65;1.20;;;25.90;40.90;;;;;;5065917;28;20479;-64
2022/06/18 05:11:24;;;;;;;2.17;1.20;;;25.90;41.00;;;;;;5071768;28;20675;-64
2022/06/18 05:13:50;;;;;;;2.13;1.10;;;25.80;41.00;;;;;;5069169;28;20033;-61
2022/06/18 05:16:16;;;;;;;1.45;1.17;;;25.80;41.00;;;;;;5068030;28;20099;-63
2022/06/18 05:18:45;;;;;;;3.00;1.40;;;25.70;41.20;;;;;;5069618;28;20480;-64
2022/06/18 05:21:11;;;;;;;;;;;25.70;41.30;;;;;;5070486;28;20033;-66
2022/06/18 05:23:36;;;;;;;2.30;1.50;;;25.60;41.60;;;;;;5067126;28;19912;-61
2022/06/18 05:26:02;;;;;;;2.35;1.60;;;25.50;42.00;;;;;;5071661;28;20103;-66
2022/06/18 05:28:28;;;;;;;3.05;1.40;;;25.50;42.30;;;;;;5070026;28;20686;-66
2022/06/18 05:30:54;;;;;;;2.50;1.50;;;25.40;42.40;;;;;;5070789;28;21025;-63
2022/06/18 05:33:20;;;;;;;3.22;1.40;;;25.40;42.80;;;;;;5068124;28;20124;-63
2022/06/18 05:35:46;;;;;;;3.38;1.30;;;25.40;42.80;;;;;;5069060;28;20032;-64
2022/06/18 05:38:20;;;;;;;3.53;1.65;;;25.40;43.00;;;;;;5068826;28;20036;-66
2022/06/18 05:40:45;;;;;;;1.58;1.25;;;25.30;43.30;;;;;;5066697;28;20127;-64
2022/06/18 05:43:11;;;;;;;2.20;1.70;;;25.30;43.60;;;;;;5068963;28;20047;-64
2022/06/18 05:45:38;;;;;;;3.00;1.58;;;25.10;44.20;;;;;;5069636;28;20060;-63
2022/06/18 05:48:04;;;;;;;2.50;1.90;;;25.10;44.40;;;;;;5068660;28;20098;-64
2022/06/18 05:50:30;;;;;;;2.80;1.90;;;25.00;44.50;;;;;;5069643;28;20388;-64
2022/06/18 05:52:55;;;;;;;3.75;2.05;;;24.90;44.60;;;;;;5068551;28;20027;-60
2022/06/18 05:55:22;;;;;;;3.38;1.70;;;24.80;44.60;;;;;;5068705;28;20032;-64
2022/06/18 05:57:52;;;;;;;2.15;1.65;;;24.70;44.70;;;;;;5067595;28;20418;-62
2022/06/18 06:00:21;;;;;;;1.70;1.40;;;24.80;44.90;;;;;;5069678;28;20055;-64
2022/06/18 06:02:47;;;;;;;2.38;1.80;;;24.90;44.70;;;;;;5063045;28;20028;-63
2022/06/18 06:05:13;;;;;;;2.55;1.60;;;24.90;44.50;;;;;;5064402;28;20077;-62
2022/06/18 06:07:39;;;;;;;2.67;1.52;;;25.00;44.50;;;;;;5064594;28;20495;-65
2022/06/18 06:13:11;;;;;;;2.65;1.70;;;25.00;44.90;;;;;;5069301;28;20086;-65
2022/06/18 06:15:38;;;;;;;2.33;1.80;;;24.90;45.10;;;;;;5068245;28;20032;-64
2022/06/18 06:18:05;;;;;;;2.83;1.63;;;24.80;45.30;;;;;;5062253;28;20107;-67
2022/06/18 06:20:34;;;;;;;4.65;1.75;;;24.80;45.30;;;;;;5067661;28;20032;-63
2022/06/18 06:23:00;;;;;;;2.22;1.60;;;24.80;45.20;;;;;;5067241;28;20023;-66
2022/06/18 06:25:26;;;;;;;1.90;1.30;;;24.90;45.10;;;;;;5070205;28;20021;-64
2022/06/18 06:27:52;;;;;;;2.78;1.42;;;25.00;45.10;;;;;;5067937;28;20035;-64
2022/06/18 06:30:18;;;;;;;2.97;1.40;;;25.00;44.90;;;;;;5068160;28;20487;-66
2022/06/18 06:32:44;;;;;;;3.15;1.50;;;25.10;44.90;;;;;;5065661;28;20522;-66
2022/06/18 06:35:11;;;;;;;2.38;1.30;;;25.10;44.80;;;;;;5065087;28;20756;-63
2022/06/18 06:37:36;;;;;;;1.80;1.30;;;25.10;44.80;;;;;;5064052;28;20024;-65
2022/06/18 06:40:03;;;;;;;1.98;1.30;;;25.10;44.70;;;;;;5065259;28;20059;-60
2022/06/18 06:42:29;;;;;;;1.80;1.30;;;25.10;44.70;;;;;;5068225;28;20146;-64
2022/06/18 06:44:55;;;;;;;2.78;1.55;;;25.20;44.70;;;;;;5064663;28;20100;-66
2022/06/18 06:47:21;;;;;;;1.90;1.27;;;25.20;44.70;;;;;;5063851;28;20101;-64
2022/06/18 06:49:46;;;;;;;1.92;1.27;;;25.20;44.60;;;;;;5069809;28;20467;-64
2022/06/18 06:52:13;;;;;;;1.70;1.10;;;25.20;44.60;;;;;;5064520;28;20100;-67
2022/06/18 06:54:39;;;;;;;2.22;1.20;;;25.20;44.60;;;;;;5066384;28;20058;-64
2022/06/18 06:57:23;;;;;;;1.92;1.30;;;25.20;44.60;;;;;;5065342;28;20039;-67
2022/06/18 06:59:49;;;;;;;2.30;1.30;;;25.30;44.60;;;;;;5065791;28;20013;-65
2022/06/18 07:02:19;;;;;;;1.63;1.17;;;25.20;44.60;;;;;;5064781;28;20117;-66
2022/06/18 07:04:45;;;;;;;1.42;1.15;;;25.30;44.60;;;;;;5062742;28;20029;-66
2022/06/18 07:07:15;;;;;;;1.75;1.20;;;25.30;44.60;;;;;;5067143;28;20047;-65
2022/06/18 07:09:41;;;;;;;1.20;1.00;;;25.30;44.60;;;;;;5064546;28;20024;-63
2022/06/18 07:12:08;;;;;;;1.88;1.20;;;25.30;44.60;;;;;;5066931;28;20613;-65
2022/06/18 07:14:35;;;;;;;1.65;1.10;;;25.30;44.60;;;;;;5066762;28;20028;-64
2022/06/18 07:17:01;;;;;;;1.70;1.25;;;25.30;44.60;;;;;;5064613;28;20051;-64
2022/06/18 07:19:26;;;;;;;1.67;1.30;;;25.40;44.60;;;;;;5063602;28;21875;-66
2022/06/18 07:21:52;;;;;;;1.63;1.10;;;25.40;44.90;;;;;;5067213;28;20116;-63
2022/06/18 07:24:19;;;;;;;1.65;1.20;;;25.30;44.60;;;;;;5066028;28;20020;-61
2022/06/18 07:26:45;;;;;;;2.15;1.20;;;25.30;44.60;;;;;;5067664;28;20024;-64
2022/06/18 07:29:11;;;;;;;1.92;1.10;;;25.40;44.60;;;;;;5068915;28;20021;-67
2022/06/18 07:31:36;;;;;;;1.55;1.10;;;25.40;44.60;;;;;;5070150;28;20048;-64
2022/06/18 07:34:04;;;;;;;1.58;1.00;;;25.40;44.70;;;;;;5070081;28;20326;-64
2022/06/18 07:36:32;;;;;;;1.40;1.10;;;25.40;44.70;;;;;;5071385;28;20024;-61
2022/06/18 07:39:01;;;;;;;1.73;1.20;;;25.40;44.70;;;;;;5069542;28;20039;-65
2022/06/18 07:41:35;;;;;;;1.25;1.05;;;25.40;44.70;;;;;;5070518;28;20028;-68
2022/06/18 07:44:02;;;;;;;1.33;1.00;;;25.40;44.80;;;;;;5070022;28;20496;-64
2022/06/18 07:46:28;;;;;;;1.65;1.10;;;25.40;44.70;;;;;;5073578;28;20484;-64
2022/06/18 07:48:54;;;;;;;2.90;1.10;;;25.40;44.80;;;;;;5066295;28;20058;-68
2022/06/18 07:51:20;;;;;;;1.67;1.13;;;25.40;44.70;;;;;;5069417;28;20314;-61
2022/06/18 07:53:45;;;;;;;1.38;1.10;;;25.40;44.80;;;;;;5068157;28;20122;-64
2022/06/18 07:56:15;;;;;;;1.20;1.00;;;25.40;44.70;;;;;;5070655;28;20040;-60
2022/06/18 07:58:40;;;;;;;;;;;25.40;44.70;;;;;;5068320;28;20028;-62
2022/06/18 08:01:06;;;;;;;1.40;1.05;;;25.40;44.70;;;;;;5070650;28;19923;-64
2022/06/18 08:03:32;;;;;;;1.50;1.10;;;25.40;44.70;;;;;;5062121;28;20407;-65
2022/06/18 08:05:58;;;;;;;1.65;1.00;;;25.40;44.70;;;;;;5066607;28;20054;-68
2022/06/18 08:08:24;;;;;;;1.48;1.10;;;25.40;44.80;;;;;;5069778;28;20016;-65
2022/06/18 08:10:52;;;;;;;1.25;1.00;;;25.40;44.70;;;;;;5074736;28;20434;-68
2022/06/18 08:13:18;;;;;;;1.75;1.10;;;25.40;44.80;;;;;;5069897;28;20020;-63
2022/06/18 08:15:44;;;;;;;1.77;1.20;;;25.40;44.80;;;;;;5073096;28;20058;-69
2022/06/18 08:18:10;;;;;;;1.55;1.10;;;25.40;44.80;;;;;;5068955;28;20024;-64
2022/06/18 08:20:36;;;;;;;1.52;1.10;;;25.50;44.80;;;;;;5073327;28;20115;-64
2022/06/18 08:23:04;;;;;;;1.23;1.10;;;25.50;44.80;;;;;;5068173;28;20059;-64
2022/06/18 08:25:31;;;;;;;1.83;1.10;;;25.50;44.90;;;;;;5071230;28;20044;-64
2022/06/18 08:28:00;;;;;;;2.17;1.10;;;25.50;44.80;;;;;;5068729;28;20051;-61
2022/06/18 08:30:26;;;;;;;1.35;1.10;;;25.50;44.80;;;;;;5073625;28;20103;-69
2022/06/18 08:32:52;;;;;;;0.98;0.95;;;25.50;44.90;;;;;;5069289;28;20122;-68
2022/06/18 08:35:17;;;;;;;1.90;1.10;;;25.50;44.80;;;;;;5072015;28;20081;-61
2022/06/18 08:37:43;;;;;;;1.42;1.00;;;25.50;44.90;;;;;;5064219;28;21123;-65
2022/06/18 08:40:37;;;;;;;1.60;1.20;;;25.50;44.90;;;;;;5067762;28;20028;-68
2022/06/18 08:43:36;;;;;;;1.40;1.08;;;25.60;44.90;;;;;;5051811;28;20082;-68
2022/06/18 08:46:25;;;;;;;1.83;1.10;;;25.50;44.90;;;;;;5067929;28;20113;-61
2022/06/18 08:49:18;;;;;;;1.23;1.00;;;25.50;44.90;;;;;;5068168;28;20032;-63
2022/06/18 08:52:08;;;;;;;1.30;1.00;;;25.50;44.90;;;;;;5051660;28;20080;-65
2022/06/18 08:54:40;;;;;;;1.35;0.90;;;25.50;44.80;;;;;;5069926;28;20349;-69
2022/06/18 08:57:11;;;;;;;1.90;1.05;;;25.50;44.90;;;;;;5070325;28;20103;-65
2022/06/18 08:59:43;;;;;;;1.45;1.10;;;25.50;44.90;;;;;;5068493;28;20127;-61
2022/06/18 09:02:20;;;;;;;1.55;1.10;;;25.60;44.90;;;;;;5068662;28;20076;-68
2022/06/18 09:05:06;;;;;;;1.23;1.00;;;25.60;44.90;;;;;;5068709;28;20032;-64
2022/06/18 09:07:56;;;;;;;1.90;1.33;;;25.60;45.00;;;;;;5068652;28;20372;-64
2022/06/18 09:10:49;;;;;;;1.63;1.27;;;25.60;45.00;;;;;;5068676;28;20027;-68
2022/06/18 09:13:32;;;;;;;1.20;0.93;;;25.60;45.00;;;;;;5068394;28;20020;-65
2022/06/18 09:16:02;;;;;;;1.40;1.00;;;25.60;45.00;;;;;;5072237;28;20051;-64
2022/06/18 09:19:00;;;;;;;1.17;1.00;;;25.60;45.00;;;;;;5065731;28;20187;-63
2022/06/18 09:21:33;;;;;;;1.50;1.10;;;25.60;45.00;;;;;;5057879;28;20048;-68
2022/06/18 09:24:02;;;;;;;1.20;1.10;;;25.60;45.00;;;;;;5065209;28;20499;-64
2022/06/18 09:26:31;;;;;;;;;;;25.60;45.10;;;;;;5073380;28;20328;-63
2022/06/18 09:29:16;;;;;;;1.27;1.08;;;25.60;45.10;;;;;;5069175;28;19908;-67
2022/06/18 09:31:47;;;;;;;1.67;1.30;;;25.60;45.10;;;;;;5064140;28;20456;-63
2022/06/18 09:34:25;;;;;;;1.67;1.20;;;25.60;45.10;;;;;;5065112;28;20071;-63
2022/06/18 09:36:58;;;;;;;1.38;1.10;;;25.60;45.10;;;;;;5068897;28;20040;-64
2022/06/18 09:39:47;;;;;;;1.00;0.90;;;25.60;45.10;;;;;;5064726;28;20036;-66
2022/06/18 09:42:24;;;;;;;1.60;1.10;;;25.60;45.10;;;;;;5068306;28;20059;-64
2022/06/18 09:44:58;;;;;;;1.30;1.00;;;25.60;45.10;;;;;;5070351;28;20067;-68
2022/06/18 09:47:39;;;;;;;1.15;1.00;;;25.60;45.10;;;;;;5066630;28;20085;-64
2022/06/18 09:50:31;;;;;;;1.63;1.02;;;25.60;45.10;;;;;;5069366;28;20417;-68
2022/06/18 09:53:04;;;;;;;1.35;1.02;;;25.60;45.10;;;;;;5064946;28;20533;-64
2022/06/18 09:55:41;;;;;;;1.20;1.10;;;25.70;45.20;;;;;;5067976;28;20027;-63
2022/06/18 09:58:25;;;;;;;1.08;0.98;;;25.60;45.10;;;;;;5068533;28;20044;-63
2022/06/18 10:00:53;;;;;;;1.55;1.10;;;25.60;45.10;;;;;;5062026;28;20120;-62
2022/06/18 10:09:02;;;;;;;1.42;1.00;;;25.70;45.20;;;;;;5066644;28;20169;-69
2022/06/18 10:11:29;;;;;;;1.25;1.00;;;25.70;45.20;;;;;;5066158;28;20053;-63
2022/06/18 10:14:04;;;;;;;1.27;1.02;;;25.70;45.20;;;;;;5067991;28;20062;-68
2022/06/18 10:16:58;;;;;;;1.67;1.10;;;25.70;45.20;;;;;;5063104;28;20040;-63
2022/06/18 10:19:54;;;;;;;1.52;1.05;;;25.70;45.20;;;;;;5058806;28;20032;-65
2022/06/18 10:22:37;;;;;;;1.50;1.10;;;25.70;45.20;;;;;;5067867;28;20044;-63
2022/06/18 10:25:22;;;;;;;1.48;1.05;;;25.70;45.20;;;;;;5060925;28;20203;-63
2022/06/18 10:27:56;;;;;;;1.60;1.00;;;25.70;45.20;;;;;;5063060;28;20054;-65
2022/06/18 10:30:36;;;;;;;1.42;1.00;;;25.70;45.20;;;;;;5069788;28;20032;-60
2022/06/18 10:33:09;;;;;;;1.55;1.05;;;25.70;45.20;;;;;;5061893;28;20521;-66
2022/06/18 10:35:54;;;;;;;1.25;1.10;;;25.70;45.20;;;;;;5067915;28;20072;-64
2022/06/18 10:38:46;;;;;;;1.23;0.90;;;25.70;45.30;;;;;;5062044;28;20036;-62
2022/06/18 10:41:26;;;;;;;1.55;1.20;;;25.70;45.20;;;;;;5063479;28;20083;-67
2022/06/18 10:44:17;;;;;;;1.50;0.93;;;25.70;45.20;;;;;;5065668;28;20512;-68
2022/06/18 10:46:43;;;;;;;1.33;1.00;;;25.70;45.20;;;;;;5066135;28;20701;-65
2022/06/18 10:49:09;;;;;;;2.17;1.00;;;25.70;45.20;;;;;;5062142;28;20087;-62
2022/06/18 10:51:47;;;;;;;1.50;1.00;;;25.70;45.20;;;;;;5064256;28;20439;-63
2022/06/18 10:54:14;;;;;;;1.30;1.00;;;25.80;45.20;;;;;;5066090;28;20747;-64
2022/06/18 10:56:51;;;;;;;1.40;1.08;;;25.80;45.20;;;;;;5067723;28;20392;-63
2022/06/18 10:59:29;;;;;;;1.20;0.90;;;25.80;45.20;;;;;;5061825;28;20016;-62
2022/06/18 11:01:54;;;;;;;1.00;0.90;;;25.80;45.20;;;;;;5065259;28;20444;-61
2022/06/18 11:04:26;;;;;;;1.10;1.00;;;25.80;45.30;;;;;;5066077;28;20027;-63
2022/06/18 11:07:05;;;;;;;1.13;0.90;;;25.80;45.20;;;;;;5065185;28;20024;-64
2022/06/18 11:09:44;;;;;;;1.70;1.05;;;25.80;45.20;;;;;;5063013;28;20028;-65
2022/06/18 11:12:27;;;;;;;1.65;1.08;;;25.80;45.20;;;;;;5066237;28;20779;-64
2022/06/18 11:14:53;;;;;;;1.58;1.00;;;25.80;45.10;;;;;;5068982;28;20108;-68
2022/06/18 11:17:21;;;;;;;1.23;0.95;;;25.80;45.20;;;;;;5068462;28;20513;-69
2022/06/18 11:19:50;;;;;;;1.25;1.00;;;25.80;45.10;;;;;;5065561;28;20060;-65
2022/06/18 11:22:25;;;;;;;1.50;1.00;;;25.80;45.10;;;;;;5066853;28;20050;-65
2022/06/18 11:25:03;;;;;;;1.13;1.00;;;25.80;45.20;;;;;;5065513;28;20483;-63
2022/06/18 11:27:34;;;;;;;0.93;0.90;;;25.80;45.30;;;;;;5068800;28;20050;-64
2022/06/18 11:30:04;;;;;;;1.55;1.10;;;25.80;45.30;;;;;;5066996;28;20031;-62
2022/06/18 11:32:37;;;;;;;2.47;1.10;;;25.80;45.20;;;;;;5061745;28;20045;-65
2022/06/18 11:35:08;;;;;;;1.15;1.00;;;25.90;45.40;;;;;;5069981;28;20142;-63
2022/06/18 11:37:34;;;;;;;1.10;0.90;;;25.80;45.40;;;;;;5062428;28;20495;-64
2022/06/18 11:40:03;;;;;;;1.00;0.90;;;25.80;45.40;;;;;;5064970;28;20040;-64
2022/06/18 11:42:47;;;;;;;1.00;0.90;;;25.90;45.30;;;;;;5063834;28;20089;-68
2022/06/18 11:45:42;;;;;;;1.00;0.90;;;25.90;45.50;;;;;;5065221;28;20035;-62
2022/06/18 11:48:30;;;;;;;1.45;0.95;;;25.90;45.50;;;;;;5063076;28;20743;-64
2022/06/18 11:51:18;;;;;;;0.90;0.90;;;25.80;45.40;;;;;;5067362;28;20066;-62
2022/06/18 11:54:06;;;;;;;1.23;1.00;;;25.90;45.50;;;;;;5061755;28;20032;-65
2022/06/18 11:56:37;;;;;;;1.05;0.95;;;25.90;45.50;;;;;;5063294;28;20036;-65
2022/06/18 11:59:19;;;;;;;1.02;0.93;;;25.90;45.70;;;;;;5061774;28;20069;-65
2022/06/18 12:02:16;;;;;;;1.60;1.10;;;25.90;45.80;;;;;;5065711;28;20048;-65
2022/06/18 12:04:55;;;;;;;1.58;1.00;;;25.90;46.10;;;;;;5065864;28;20042;-67
2022/06/18 12:07:50;;;;;;;1.52;1.10;;;26.00;46.00;;;;;;5064143;28;20038;-66
2022/06/18 12:10:18;;;;;;;1.00;0.90;;;26.00;46.10;;;;;;5060897;28;20041;-64
2022/06/18 12:12:50;;;;;;;1.20;0.98;;;26.00;46.00;;;;;;5069207;28;20445;-64
2022/06/18 12:15:38;;;;;;;1.40;1.00;;;26.00;46.20;;;;;;5069761;28;20120;-62
2022/06/18 12:18:33;;;;;;;1.23;1.00;;;26.00;46.40;;;;;;5062124;28;20044;-68
2022/06/18 12:21:21;;;;;;;1.00;0.90;;;26.00;46.30;;;;;;5050058;28;20119;-66
2022/06/18 12:24:04;;;;;;;0.93;0.90;;;26.00;46.20;;;;;;5065443;28;20028;-65
2022/06/18 12:26:39;;;;;;;1.10;1.00;;;26.10;46.20;;;;;;5060754;28;20967;-64
2022/06/18 12:29:26;;;;;;;1.25;0.90;;;26.10;46.20;;;;;;5067767;28;20043;-69
2022/06/18 12:32:20;;;;;;;1.10;0.88;;;26.10;46.20;;;;;;5071055;28;20044;-64
2022/06/18 12:34:58;;;;;;;0.90;0.80;;;26.10;46.30;;;;;;5064884;28;20079;-66
2022/06/18 12:38:07;;;;;;;1.08;0.90;;;26.10;46.30;;;;;;5060906;28;20089;-63
2022/06/18 12:40:41;;;;;;;0.77;0.77;;;26.20;46.30;;;;;;5066826;28;20051;-66
2022/06/18 12:43:28;;;;;;;0.80;0.80;;;26.20;46.20;;;;;;5065712;28;20409;-67
2022/06/18 12:45:59;;;;;;;0.95;0.90;;;26.20;46.30;;;;;;5067114;28;20033;-66
2022/06/18 12:48:52;;;;;;;1.05;0.90;;;26.20;46.30;;;;;;5063679;28;20029;-66
2022/06/18 12:51:49;;;;;;;1.40;0.82;;;26.20;46.30;;;;;;5066308;28;20047;-65
2022/06/18 12:54:29;;;;;;;0.80;0.80;;;26.20;46.40;;;;;;5067805;28;20065;-65
2022/06/18 12:57:11;;;;;;;1.10;0.80;;;26.30;46.60;;;;;;5072644;28;20024;-65
2022/06/18 12:59:43;;;;;;;1.02;0.80;;;26.30;46.60;;;;;;5071085;28;20398;-65
2022/06/18 13:02:44;;;;;;;0.90;0.80;;;26.30;46.60;;;;;;5067360;28;20505;-62
2022/06/18 13:05:09;;;;;;;0.93;0.80;;;26.30;46.50;;;;;;5067223;28;20038;-66
2022/06/18 13:08:09;;;;;;;0.77;0.75;;;26.30;46.50;;;;;;5070819;28;20535;-65
2022/06/18 13:10:51;;;;;;;0.98;0.80;;;26.30;46.50;;;;;;5069722;28;20020;-61
2022/06/18 13:13:52;;;;;;;1.00;0.80;;;26.30;46.50;;;;;;5068953;28;20023;-66
2022/06/18 13:16:40;;;;;;;1.10;0.88;;;26.30;46.50;;;;;;5069812;28;20062;-64
2022/06/18 13:19:20;;;;;;;1.38;0.98;;;26.30;46.50;;;;;;5069965;28;20103;-66
2022/06/18 13:21:47;;;;;;;1.23;0.80;;;26.40;46.60;;;;;;5063217;28;20072;-63
2022/06/18 13:30:09;;;;;;;1.35;0.80;;;26.40;46.70;;;;;;5053444;28;20034;-62
2022/06/18 13:32:52;;;;;;;0.80;0.80;;;26.40;46.70;;;;;;5068211;28;20755;-65
2022/06/18 13:35:41;;;;;;;1.00;0.80;;;26.40;46.60;;;;;;5065026;28;20043;-66